This is the latest recevied weather packets stored in our database for station/object SP9UVG-13. If no packets are shown the sender has not sent any weather packets the latest 10 day(s).
| Time | Temp. | Humidity | Pressure | Rain* | Wind** | Luminosity | Snow |
|---|---|---|---|---|---|---|---|
| 1787602331 | 11.11° C | 77% | 1006.6 hPa | 0 mm | - | - | - |
| 1787601791 | 11.11° C | 76% | 1006.5 hPa | 0 mm | - | - | - |
| 1787600709 | 11.67° C | 73% | 1006.6 hPa | 0 mm | - | - | - |
| 1787600169 | 12.22° C | 72% | 1006.9 hPa | 0 mm | - | - | - |
| 1787599628 | 12.22° C | 71% | 1006.9 hPa | 0 mm | - | - | - |
| 1787599088 | 12.78° C | 70% | 1006.9 hPa | 0 mm | - | - | - |
| 1787598547 | 12.78° C | 70% | 1006.9 hPa | 0 mm | - | - | - |
| 1787598007 | 12.78° C | 71% | 1006.6 hPa | 0 mm | - | - | - |
| 1787597466 | 12.78° C | 70% | 1006.7 hPa | 0 mm | - | - | - |
| 1787596926 | 12.78° C | 70% | 1006.9 hPa | 0 mm | - | - | - |
| 1787596385 | 12.78° C | 69% | 1006.9 hPa | 0 mm | - | - | - |
| 1787595845 | 12.78° C | 67% | 1006.9 hPa | 0 mm | - | - | - |
| 1787594764 | 13.33° C | 66% | 1006.8 hPa | 0 mm | - | - | - |
| 1787594223 | 13.89° C | 64% | 1006.7 hPa | 0 mm | - | - | - |
| 1787593683 | 13.89° C | 62% | 1006.5 hPa | 0 mm | - | - | - |
| 1787593142 | 15° C | 60% | 1006.5 hPa | 0 mm | - | - | - |
| 1787592602 | 15.56° C | 59% | 1006.4 hPa | 0 mm | - | - | - |
| 1787590980 | 17.22° C | 52% | 1006.3 hPa | 0 mm | - | - | - |
| 1787590440 | 17.78° C | 50% | 1006.4 hPa | 0 mm | - | - | - |
| 1787568819 | 33.89° C | 27% | 1007.3 hPa | 0 mm | - | - | - |
| 1787568289 | 35° C | 26% | 1007.5 hPa | 0 mm | - | - | - |
| 1787567737 | 35° C | 26% | 1007.4 hPa | 0 mm | - | - | - |
| 1787567197 | 36.67° C | 24% | 1007.3 hPa | 0 mm | - | - | - |
| 1787566656 | 36.67° C | 25% | 1007.1 hPa | 0 mm | - | - | - |
| 1787566116 | 36.11° C | 26% | 1007.2 hPa | 0 mm | - | - | - |
* Rain latest hour (hover to see other rain measurements)
** Current wind speed in m/s (hover to see current wind gust speed)